MST,Max TemperatureF,Mean TemperatureF,Min TemperatureF,Max Dew PointF,MeanDew PointF,Min DewpointF,Max Humidity, Mean Humidity, Min Humidity, Max Sea Level PressureIn, Mean Sea Level PressureIn, Min Sea Level PressureIn, Max VisibilityMiles, Mean VisibilityMiles, Min VisibilityMiles, Max Wind SpeedMPH, Mean Wind SpeedMPH, Max Gust SpeedMPH,PrecipitationIn, CloudCover, Events, WindDirDegrees
2013-1-1,31,23,15,24,16,9,75,69,62,30.38,30.24,30.03,10,9,1,33,17,40,T,2,Snow,278
2013-1-2,31,21,11,18,11,5,76,65,53,30.48,30.38,30.24,10,10,10,22,9,28,0.00,0,,263
2013-1-3,45,33,21,21,15,10,62,50,37,30.21,30.11,30.02,10,10,10,36,12,41,0.00,0,,258
2013-1-4,39,31,22,24,19,10,81,60,38,30.22,30.09,29.99,10,10,10,40,22,46,0.00,0,,258
2013-1-5,42,32,21,23,19,16,84,65,45,30.28,30.16,29.96,10,10,10,25,10,31,0.00,0,,234
2013-1-6,39,31,22,23,21,17,75,60,44,29.93,29.88,29.83,10,10,10,45,25,51,0.00,1,,257
2013-1-7,39,32,24,24,21,18,81,65,48,29.93,29.73,29.51,10,10,10,43,19,48,0.00,3,,257
2013-1-8,35,30,25,28,20,10,85,60,35,29.99,29.83,29.65,10,9,2,27,16,37,T,4,Snow,261
2013-1-9,46,36,25,30,27,21,82,62,41,29.81,29.66,29.57,10,10,10,60,24,74,0.00,0,,221
2013-1-10,31,19,7,27,13,3,92,86,80,30.06,29.82,29.63,10,2,1,32,22,39,T,8,Snow,349
2013-1-11,10,2,-7,3,1,-9,91,82,73,30.33,30.10,29.88,10,4,1,12,15,13,T,7,Snow,345
2013-1-12,16,1,-14,9,-2,-18,91,79,67,30.36,30.27,30.06,10,10,6,24,11,29,T,3,Snow,313
2013-1-13,19,10,1,9,5,-1,83,70,56,30.35,30.26,30.10,10,10,10,28,13,35,0.00,8,,285
2013-1-14,24,19,13,17,12,5,77,72,67,30.22,30.07,29.85,10,9,3,40,24,46,T,7,Snow,262
2013-1-15,34,29,23,25,21,17,78,70,61,30.14,30.07,29.92,10,7,2,44,34,53,0.00,3,,258
2013-1-16,39,35,30,26,23,21,69,61,52,30.30,30.17,29.99,10,10,9,43,25,49,0.00,0,,261
2013-1-17,44,37,30,24,22,19,69,56,43,30.27,30.12,29.90,10,10,10,54,29,64,0.00,0,,256
2013-1-18,46,41,35,21,19,16,52,43,34,30.02,29.91,29.86,10,10,10,44,25,51,0.00,0,,267
2013-1-19,38,29,20,25,21,15,100,70,40,30.43,30.23,30.04,10,8,0,30,13,36,0.00,5,Fog,26
2013-1-20,21,14,6,16,8,3,92,84,76,30.64,30.47,30.22,10,8,2,30,8,36,T,7,Snow,19
2013-1-21,28,20,11,17,12,8,100,80,60,30.38,30.16,30.04,10,5,0,8,3,9,0.00,3,Fog,126
2013-1-22,46,29,11,20,15,9,92,59,25,30.17,30.10,30.05,10,10,8,24,10,31,0.00,0,,330
2013-1-23,22,17,12,12,11,10,96,79,62,30.24,30.07,29.78,10,9,5,17,8,20,0.00,4,,132
2013-1-24,46,32,17,28,20,11,78,58,37,30.06,29.96,29.81,10,10,10,37,21,45,0.00,0,,253
2013-1-25,54,44,34,31,27,13,82,59,35,29.99,29.90,29.81,10,10,3,33,17,41,0.00,0,,255
2013-1-26,49,37,25,34,27,18,85,66,46,29.83,29.79,29.73,10,10,10,21,10,26,0.00,5,,273
2013-1-27,44,33,22,19,16,14,74,53,31,29.84,29.81,29.76,10,10,6,24,14,30,0.00,2,,263
2013-1-28,40,28,15,21,15,10,92,65,37,29.82,29.76,29.62,10,10,9,26,15,31,T,1,Snow,274
2013-1-29,15,6,-4,11,-1,-10,88,75,62,30.40,30.09,29.72,10,8,1,32,14,37,T,5,Snow,354
2013-1-30,34,18,1,24,8,-3,87,75,63,30.24,30.07,29.82,10,10,10,26,12,31,0.00,7,,353
2013-1-31,48,28,8,28,16,2,76,60,43,30.27,30.12,29.90,10,10,10,28,10,36,0.00,5,,218